Trelipe, Minnesota
Current Conditions -  °F | °C
As of 6:16 PM on Friday 19 Dec 2014 (Local Time) from KXVG Reporting Station
Haze Haze  
Wind Chill: 13°   Ceiling: 300
Heat Index: 23°   Visibility: 1.5mi
Dew Point: 23°   Wind: 9mph
Humidity: 100%   Direction: 140°SE
Pressure: 30.1"   Gusts: NA
Location:  46.8459°N, 93.8976°W
Report Text: KXVG 200016Z AUTO 14008KT 1 1/2SM BR OVC003 M05/M05 A3010 RMK AO2
Loading
Personal Weather Stations






























Interactive Weather Map New forecast layout! Learn more

10-Day Weather Forecast

Advertisements
Track Severe Weather on mobile